sensor_id;sensor_type;location;lat;lon;timestamp;temperature;humidity
780;DHT22;373;49.342;8.146;2023-05-07T00:01:41;17.10;1.00
780;DHT22;373;49.342;8.146;2023-05-07T00:04:08;17.20;99.90
780;DHT22;373;49.342;8.146;2023-05-07T00:06:38;17.30;3.40
780;DHT22;373;49.342;8.146;2023-05-07T00:09:05;17.40;1.00
780;DHT22;373;49.342;8.146;2023-05-07T00:11:33;17.10;1.00
780;DHT22;373;49.342;8.146;2023-05-07T00:14:00;16.80;1.00
780;DHT22;373;49.342;8.146;2023-05-07T00:16:27;16.80;1.00
780;DHT22;373;49.342;8.146;2023-05-07T00:18:54;16.60;75.30
780;DHT22;373;49.342;8.146;2023-05-07T00:21:22;16.70;1.00
780;DHT22;373;49.342;8.146;2023-05-07T00:23:55;16.90;99.90
780;DHT22;373;49.342;8.146;2023-05-07T00:26:22;16.90;99.90
780;DHT22;373;49.342;8.146;2023-05-07T00:28:51;16.70;1.00
780;DHT22;373;49.342;8.146;2023-05-07T00:31:18;16.60;99.90
780;DHT22;373;49.342;8.146;2023-05-07T00:33:45;16.60;99.90
780;DHT22;373;49.342;8.146;2023-05-07T00:36:12;16.50;99.90
780;DHT22;373;49.342;8.146;2023-05-07T00:38:43;16.70;99.90
780;DHT22;373;49.342;8.146;2023-05-07T00:41:12;16.70;1.00
780;DHT22;373;49.342;8.146;2023-05-07T00:43:39;16.70;1.00
780;DHT22;373;49.342;8.146;2023-05-07T00:46:06;16.60;32.90
780;DHT22;373;49.342;8.146;2023-05-07T00:48:33;16.60;99.90
780;DHT22;373;49.342;8.146;2023-05-07T00:51:00;16.40;99.90
780;DHT22;373;49.342;8.146;2023-05-07T00:53:28;16.30;99.90
780;DHT22;373;49.342;8.146;2023-05-07T00:55:55;16.30;99.90
780;DHT22;373;49.342;8.146;2023-05-07T00:58:24;16.20;99.90
780;DHT22;373;49.342;8.146;2023-05-07T01:00:51;16.30;99.90
780;DHT22;373;49.342;8.146;2023-05-07T01:03:18;16.10;99.90
780;DHT22;373;49.342;8.146;2023-05-07T01:05:50;15.90;1.00
780;DHT22;373;49.342;8.146;2023-05-07T01:08:18;15.80;1.00
780;DHT22;373;49.342;8.146;2023-05-07T01:10:46;15.70;1.00
780;DHT22;373;49.342;8.146;2023-05-07T01:13:14;15.60;1.00
780;DHT22;373;49.342;8.146;2023-05-07T01:15:45;15.50;1.00
780;DHT22;373;49.342;8.146;2023-05-07T01:18:12;15.50;1.00
780;DHT22;373;49.342;8.146;2023-05-07T01:20:40;15.40;1.00
780;DHT22;373;49.342;8.146;2023-05-07T01:23:10;15.50;1.00
780;DHT22;373;49.342;8.146;2023-05-07T01:25:38;15.50;1.00
780;DHT22;373;49.342;8.146;2023-05-07T01:28:06;15.60;1.00
780;DHT22;373;49.342;8.146;2023-05-07T01:30:36;15.50;1.00
780;DHT22;373;49.342;8.146;2023-05-07T01:33:08;15.30;1.00
780;DHT22;373;49.342;8.146;2023-05-07T01:35:39;15.30;1.00
780;DHT22;373;49.342;8.146;2023-05-07T01:38:09;15.10;1.00
780;DHT22;373;49.342;8.146;2023-05-07T01:40:37;15.30;1.00
780;DHT22;373;49.342;8.146;2023-05-07T01:43:07;15.30;1.00
780;DHT22;373;49.342;8.146;2023-05-07T01:45:36;15.20;1.00
780;DHT22;373;49.342;8.146;2023-05-07T01:48:03;15.00;1.00
780;DHT22;373;49.342;8.146;2023-05-07T01:50:31;14.90;1.00
780;DHT22;373;49.342;8.146;2023-05-07T01:52:59;14.80;1.00
780;DHT22;373;49.342;8.146;2023-05-07T01:55:27;15.10;1.00
780;DHT22;373;49.342;8.146;2023-05-07T01:57:55;15.00;1.00
780;DHT22;373;49.342;8.146;2023-05-07T02:00:22;14.90;1.00
780;DHT22;373;49.342;8.146;2023-05-07T02:02:49;15.10;1.00
780;DHT22;373;49.342;8.146;2023-05-07T02:05:50;15.10;1.00
780;DHT22;373;49.342;8.146;2023-05-07T02:08:28;15.00;1.00
780;DHT22;373;49.342;8.146;2023-05-07T02:10:57;14.80;1.00
780;DHT22;373;49.342;8.146;2023-05-07T02:13:26;14.70;1.00
780;DHT22;373;49.342;8.146;2023-05-07T02:15:53;14.70;1.00
780;DHT22;373;49.342;8.146;2023-05-07T02:18:22;14.80;1.00
780;DHT22;373;49.342;8.146;2023-05-07T02:20:49;14.80;1.00
780;DHT22;373;49.342;8.146;2023-05-07T02:23:16;14.80;1.00
780;DHT22;373;49.342;8.146;2023-05-07T02:25:43;14.90;1.00
780;DHT22;373;49.342;8.146;2023-05-07T02:28:12;14.80;1.00
780;DHT22;373;49.342;8.146;2023-05-07T02:30:52;15.00;1.00
780;DHT22;373;49.342;8.146;2023-05-07T02:33:20;14.90;1.00
780;DHT22;373;49.342;8.146;2023-05-07T02:35:48;15.10;1.00
780;DHT22;373;49.342;8.146;2023-05-07T02:38:15;15.10;1.00
780;DHT22;373;49.342;8.146;2023-05-07T02:40:43;15.10;1.00
780;DHT22;373;49.342;8.146;2023-05-07T02:43:12;15.20;1.00
780;DHT22;373;49.342;8.146;2023-05-07T02:45:42;15.30;1.00
780;DHT22;373;49.342;8.146;2023-05-07T02:48:11;15.40;1.00
780;DHT22;373;49.342;8.146;2023-05-07T02:50:38;15.50;1.00
780;DHT22;373;49.342;8.146;2023-05-07T02:53:05;15.70;1.00
780;DHT22;373;49.342;8.146;2023-05-07T02:55:32;15.50;1.00
780;DHT22;373;49.342;8.146;2023-05-07T02:57:59;15.50;1.00
780;DHT22;373;49.342;8.146;2023-05-07T03:00:28;15.30;1.00
780;DHT22;373;49.342;8.146;2023-05-07T03:03:06;15.10;1.00
780;DHT22;373;49.342;8.146;2023-05-07T03:05:34;14.80;1.00
780;DHT22;373;49.342;8.146;2023-05-07T03:08:01;14.80;1.00
780;DHT22;373;49.342;8.146;2023-05-07T03:10:28;14.90;1.00
780;DHT22;373;49.342;8.146;2023-05-07T03:12:55;14.90;1.00
780;DHT22;373;49.342;8.146;2023-05-07T03:15:22;15.00;1.00
780;DHT22;373;49.342;8.146;2023-05-07T03:17:51;14.80;1.00
780;DHT22;373;49.342;8.146;2023-05-07T03:20:19;14.70;1.00
780;DHT22;373;49.342;8.146;2023-05-07T03:22:46;14.60;1.00
780;DHT22;373;49.342;8.146;2023-05-07T03:25:13;14.60;1.00
780;DHT22;373;49.342;8.146;2023-05-07T03:27:40;14.70;1.00
780;DHT22;373;49.342;8.146;2023-05-07T03:30:09;14.70;1.00
780;DHT22;373;49.342;8.146;2023-05-07T03:32:36;14.70;1.00
780;DHT22;373;49.342;8.146;2023-05-07T03:35:08;14.90;1.00
780;DHT22;373;49.342;8.146;2023-05-07T03:37:35;15.30;1.00
780;DHT22;373;49.342;8.146;2023-05-07T03:40:04;15.60;1.00
780;DHT22;373;49.342;8.146;2023-05-07T03:42:40;15.90;99.90
780;DHT22;373;49.342;8.146;2023-05-07T03:45:09;16.20;1.00
780;DHT22;373;49.342;8.146;2023-05-07T03:47:39;16.40;1.00
780;DHT22;373;49.342;8.146;2023-05-07T03:50:09;16.40;1.00
780;DHT22;373;49.342;8.146;2023-05-07T03:52:37;16.40;99.90
780;DHT22;373;49.342;8.146;2023-05-07T03:55:06;16.50;1.00
780;DHT22;373;49.342;8.146;2023-05-07T03:57:36;16.50;99.90
780;DHT22;373;49.342;8.146;2023-05-07T04:00:04;16.60;99.90
780;DHT22;373;49.342;8.146;2023-05-07T04:02:46;16.70;99.90
780;DHT22;373;49.342;8.146;2023-05-07T04:05:17;16.70;1.00
780;DHT22;373;49.342;8.146;2023-05-07T04:07:47;16.60;99.90
780;DHT22;373;49.342;8.146;2023-05-07T04:10:18;16.70;1.00
780;DHT22;373;49.342;8.146;2023-05-07T04:12:47;16.60;1.00
780;DHT22;373;49.342;8.146;2023-05-07T04:15:19;16.50;1.00
780;DHT22;373;49.342;8.146;2023-05-07T04:17:46;16.50;25.70
780;DHT22;373;49.342;8.146;2023-05-07T04:20:17;16.50;1.00
780;DHT22;373;49.342;8.146;2023-05-07T04:22:48;16.70;1.00
780;DHT22;373;49.342;8.146;2023-05-07T04:25:16;16.70;99.90
780;DHT22;373;49.342;8.146;2023-05-07T04:27:43;16.60;1.00
780;DHT22;373;49.342;8.146;2023-05-07T04:30:13;16.60;1.00
780;DHT22;373;49.342;8.146;2023-05-07T04:32:40;16.80;99.90
780;DHT22;373;49.342;8.146;2023-05-07T04:35:07;16.80;1.00
780;DHT22;373;49.342;8.146;2023-05-07T04:37:36;16.70;99.90
780;DHT22;373;49.342;8.146;2023-05-07T04:40:05;17.10;99.90
780;DHT22;373;49.342;8.146;2023-05-07T04:42:33;17.10;89.70
780;DHT22;373;49.342;8.146;2023-05-07T04:45:01;17.30;1.00
780;DHT22;373;49.342;8.146;2023-05-07T04:47:32;17.50;99.90
780;DHT22;373;49.342;8.146;2023-05-07T04:50:00;17.60;99.90
780;DHT22;373;49.342;8.146;2023-05-07T04:52:28;17.70;99.90
780;DHT22;373;49.342;8.146;2023-05-07T04:54:58;17.60;99.90
780;DHT22;373;49.342;8.146;2023-05-07T04:57:26;17.80;99.90
780;DHT22;373;49.342;8.146;2023-05-07T04:59:53;17.90;20.90
780;DHT22;373;49.342;8.146;2023-05-07T05:02:21;17.70;99.90
780;DHT22;373;49.342;8.146;2023-05-07T05:04:48;17.90;99.90
780;DHT22;373;49.342;8.146;2023-05-07T05:07:15;17.90;1.00
780;DHT22;373;49.342;8.146;2023-05-07T05:09:45;17.90;39.50
780;DHT22;373;49.342;8.146;2023-05-07T05:12:13;18.00;1.00
780;DHT22;373;49.342;8.146;2023-05-07T05:14:41;18.10;1.00
780;DHT22;373;49.342;8.146;2023-05-07T05:17:09;18.20;1.00
780;DHT22;373;49.342;8.146;2023-05-07T05:19:37;18.30;1.00
780;DHT22;373;49.342;8.146;2023-05-07T05:22:04;18.40;99.90
780;DHT22;373;49.342;8.146;2023-05-07T05:24:31;18.60;99.90
780;DHT22;373;49.342;8.146;2023-05-07T05:26:59;18.50;99.90
780;DHT22;373;49.342;8.146;2023-05-07T05:29:30;18.60;99.90
780;DHT22;373;49.342;8.146;2023-05-07T05:31:57;18.50;99.90
780;DHT22;373;49.342;8.146;2023-05-07T05:34:25;18.60;1.00
780;DHT22;373;49.342;8.146;2023-05-07T05:36:53;18.70;1.00
780;DHT22;373;49.342;8.146;2023-05-07T05:39:21;18.80;1.00
780;DHT22;373;49.342;8.146;2023-05-07T05:41:49;18.80;99.90
780;DHT22;373;49.342;8.146;2023-05-07T05:44:17;18.80;1.00
780;DHT22;373;49.342;8.146;2023-05-07T05:46:45;18.80;1.00
780;DHT22;373;49.342;8.146;2023-05-07T05:49:13;18.70;1.00
780;DHT22;373;49.342;8.146;2023-05-07T05:51:40;18.30;1.00
780;DHT22;373;49.342;8.146;2023-05-07T05:54:08;18.30;19.40
780;DHT22;373;49.342;8.146;2023-05-07T05:56:36;18.50;99.90
780;DHT22;373;49.342;8.146;2023-05-07T05:59:03;18.80;20.90
780;DHT22;373;49.342;8.146;2023-05-07T06:01:31;18.90;1.00
780;DHT22;373;49.342;8.146;2023-05-07T06:04:03;19.00;99.90
780;DHT22;373;49.342;8.146;2023-05-07T06:06:30;19.10;1.00
780;DHT22;373;49.342;8.146;2023-05-07T06:08:58;19.30;99.90
780;DHT22;373;49.342;8.146;2023-05-07T06:11:31;19.30;1.00
780;DHT22;373;49.342;8.146;2023-05-07T06:13:59;19.40;99.90
780;DHT22;373;49.342;8.146;2023-05-07T06:16:27;19.80;99.90
780;DHT22;373;49.342;8.146;2023-05-07T06:18:54;19.80;99.90
780;DHT22;373;49.342;8.146;2023-05-07T06:21:23;19.70;99.90
780;DHT22;373;49.342;8.146;2023-05-07T06:23:50;20.30;1.00
780;DHT22;373;49.342;8.146;2023-05-07T06:26:18;20.40;1.00
780;DHT22;373;49.342;8.146;2023-05-07T06:28:47;20.60;1.00
780;DHT22;373;49.342;8.146;2023-05-07T06:31:17;20.80;1.00
780;DHT22;373;49.342;8.146;2023-05-07T06:33:51;20.90;1.00
780;DHT22;373;49.342;8.146;2023-05-07T06:36:19;21.20;1.00
780;DHT22;373;49.342;8.146;2023-05-07T06:38:48;21.10;99.90
780;DHT22;373;49.342;8.146;2023-05-07T06:41:16;20.70;1.00
780;DHT22;373;49.342;8.146;2023-05-07T06:43:43;20.50;1.00
780;DHT22;373;49.342;8.146;2023-05-07T06:46:43;20.80;1.00
780;DHT22;373;49.342;8.146;2023-05-07T06:49:12;20.70;1.00
780;DHT22;373;49.342;8.146;2023-05-07T06:51:40;20.40;1.00
780;DHT22;373;49.342;8.146;2023-05-07T06:54:09;20.20;1.00
780;DHT22;373;49.342;8.146;2023-05-07T06:56:38;20.30;1.00
780;DHT22;373;49.342;8.146;2023-05-07T06:59:06;20.80;1.00
780;DHT22;373;49.342;8.146;2023-05-07T07:01:37;21.10;1.00
780;DHT22;373;49.342;8.146;2023-05-07T07:04:06;21.50;1.00
780;DHT22;373;49.342;8.146;2023-05-07T07:06:33;21.50;1.00
780;DHT22;373;49.342;8.146;2023-05-07T07:09:03;21.60;1.00
780;DHT22;373;49.342;8.146;2023-05-07T07:11:33;21.60;99.90
780;DHT22;373;49.342;8.146;2023-05-07T07:14:00;21.60;99.90
780;DHT22;373;49.342;8.146;2023-05-07T07:16:29;21.20;1.00
780;DHT22;373;49.342;8.146;2023-05-07T07:18:56;21.10;1.00
780;DHT22;373;49.342;8.146;2023-05-07T07:21:23;21.30;1.00
780;DHT22;373;49.342;8.146;2023-05-07T07:23:51;21.20;1.00
780;DHT22;373;49.342;8.146;2023-05-07T07:26:20;21.30;99.90
780;DHT22;373;49.342;8.146;2023-05-07T07:28:49;21.40;99.90
780;DHT22;373;49.342;8.146;2023-05-07T07:31:19;21.30;99.90
780;DHT22;373;49.342;8.146;2023-05-07T07:33:49;21.20;99.90
780;DHT22;373;49.342;8.146;2023-05-07T07:36:17;21.50;99.90
780;DHT22;373;49.342;8.146;2023-05-07T07:38:45;21.80;99.90
780;DHT22;373;49.342;8.146;2023-05-07T07:41:12;21.80;99.90
780;DHT22;373;49.342;8.146;2023-05-07T07:43:39;22.10;99.90
780;DHT22;373;49.342;8.146;2023-05-07T07:46:08;22.60;99.90
780;DHT22;373;49.342;8.146;2023-05-07T07:48:36;22.80;99.90
780;DHT22;373;49.342;8.146;2023-05-07T07:51:04;22.40;99.90
780;DHT22;373;49.342;8.146;2023-05-07T07:53:32;21.90;99.90
780;DHT22;373;49.342;8.146;2023-05-07T07:55:59;21.90;99.90
780;DHT22;373;49.342;8.146;2023-05-07T07:58:31;22.10;99.90
780;DHT22;373;49.342;8.146;2023-05-07T08:01:01;22.50;99.90
780;DHT22;373;49.342;8.146;2023-05-07T08:03:30;22.40;99.90
780;DHT22;373;49.342;8.146;2023-05-07T08:05:59;22.50;99.90
780;DHT22;373;49.342;8.146;2023-05-07T08:08:27;23.10;99.90
780;DHT22;373;49.342;8.146;2023-05-07T08:10:54;23.50;99.90
780;DHT22;373;49.342;8.146;2023-05-07T08:13:30;23.20;99.90
780;DHT22;373;49.342;8.146;2023-05-07T08:15:59;22.70;99.90
780;DHT22;373;49.342;8.146;2023-05-07T08:18:26;22.60;99.90
780;DHT22;373;49.342;8.146;2023-05-07T08:20:56;22.80;99.90
780;DHT22;373;49.342;8.146;2023-05-07T08:23:26;23.30;99.90
780;DHT22;373;49.342;8.146;2023-05-07T08:25:53;23.30;99.90
780;DHT22;373;49.342;8.146;2023-05-07T08:28:21;23.40;99.90
780;DHT22;373;49.342;8.146;2023-05-07T08:30:50;23.50;99.90
780;DHT22;373;49.342;8.146;2023-05-07T08:33:18;23.30;99.90
780;DHT22;373;49.342;8.146;2023-05-07T08:35:45;23.40;99.90
780;DHT22;373;49.342;8.146;2023-05-07T08:38:15;23.60;99.90
780;DHT22;373;49.342;8.146;2023-05-07T08:40:42;23.50;99.90
780;DHT22;373;49.342;8.146;2023-05-07T08:43:17;23.80;99.90
780;DHT22;373;49.342;8.146;2023-05-07T08:45:46;23.50;99.90
780;DHT22;373;49.342;8.146;2023-05-07T08:48:22;23.40;99.90
780;DHT22;373;49.342;8.146;2023-05-07T08:50:58;23.60;99.90
780;DHT22;373;49.342;8.146;2023-05-07T08:53:27;23.50;99.90
780;DHT22;373;49.342;8.146;2023-05-07T08:55:55;23.70;99.90
780;DHT22;373;49.342;8.146;2023-05-07T08:58:22;23.50;99.90
780;DHT22;373;49.342;8.146;2023-05-07T09:00:51;23.30;99.90
780;DHT22;373;49.342;8.146;2023-05-07T09:03:20;22.90;99.90
780;DHT22;373;49.342;8.146;2023-05-07T09:05:50;22.80;99.90
780;DHT22;373;49.342;8.146;2023-05-07T09:08:24;23.10;99.90
780;DHT22;373;49.342;8.146;2023-05-07T09:10:54;23.40;99.90
780;DHT22;373;49.342;8.146;2023-05-07T09:13:22;23.60;99.90
780;DHT22;373;49.342;8.146;2023-05-07T09:15:50;24.00;99.90
780;DHT22;373;49.342;8.146;2023-05-07T09:18:18;24.40;99.90
780;DHT22;373;49.342;8.146;2023-05-07T09:20:48;24.10;99.90
780;DHT22;373;49.342;8.146;2023-05-07T09:23:18;23.80;99.90
780;DHT22;373;49.342;8.146;2023-05-07T09:25:45;24.70;99.90
780;DHT22;373;49.342;8.146;2023-05-07T09:28:24;25.60;99.90
780;DHT22;373;49.342;8.146;2023-05-07T09:30:51;25.50;99.90
780;DHT22;373;49.342;8.146;2023-05-07T09:33:20;25.20;99.90
780;DHT22;373;49.342;8.146;2023-05-07T09:35:51;24.40;99.90
780;DHT22;373;49.342;8.146;2023-05-07T09:38:21;23.60;99.90
780;DHT22;373;49.342;8.146;2023-05-07T09:41:02;23.40;99.90
780;DHT22;373;49.342;8.146;2023-05-07T09:43:34;23.10;99.90
780;DHT22;373;49.342;8.146;2023-05-07T09:46:06;23.60;99.90
780;DHT22;373;49.342;8.146;2023-05-07T09:48:39;24.00;99.90
780;DHT22;373;49.342;8.146;2023-05-07T09:51:15;24.10;99.90
780;DHT22;373;49.342;8.146;2023-05-07T09:53:45;24.70;99.90
780;DHT22;373;49.342;8.146;2023-05-07T09:56:14;24.40;99.90
780;DHT22;373;49.342;8.146;2023-05-07T09:58:45;24.50;99.90
780;DHT22;373;49.342;8.146;2023-05-07T10:01:14;24.40;99.90
780;DHT22;373;49.342;8.146;2023-05-07T10:03:43;24.60;99.90
780;DHT22;373;49.342;8.146;2023-05-07T10:06:12;25.00;99.90
780;DHT22;373;49.342;8.146;2023-05-07T10:08:40;24.80;99.90
780;DHT22;373;49.342;8.146;2023-05-07T10:11:09;24.90;99.90
780;DHT22;373;49.342;8.146;2023-05-07T10:13:37;24.90;99.90
780;DHT22;373;49.342;8.146;2023-05-07T10:16:09;25.20;99.90
780;DHT22;373;49.342;8.146;2023-05-07T10:18:43;24.60;99.90
780;DHT22;373;49.342;8.146;2023-05-07T10:21:17;25.20;99.90
780;DHT22;373;49.342;8.146;2023-05-07T10:23:50;25.70;99.90
780;DHT22;373;49.342;8.146;2023-05-07T10:26:20;25.60;99.90
780;DHT22;373;49.342;8.146;2023-05-07T10:28:53;25.30;99.90
780;DHT22;373;49.342;8.146;2023-05-07T10:31:44;25.70;99.90
780;DHT22;373;49.342;8.146;2023-05-07T10:34:15;26.30;99.90
780;DHT22;373;49.342;8.146;2023-05-07T10:36:44;26.80;99.90
780;DHT22;373;49.342;8.146;2023-05-07T10:39:12;26.80;99.90
780;DHT22;373;49.342;8.146;2023-05-07T10:41:40;26.40;99.90
780;DHT22;373;49.342;8.146;2023-05-07T10:44:09;25.90;99.90
780;DHT22;373;49.342;8.146;2023-05-07T10:46:38;25.90;99.90
780;DHT22;373;49.342;8.146;2023-05-07T10:49:20;26.60;99.90
780;DHT22;373;49.342;8.146;2023-05-07T10:52:10;26.70;99.90
780;DHT22;373;49.342;8.146;2023-05-07T10:54:38;26.40;99.90
780;DHT22;373;49.342;8.146;2023-05-07T10:57:35;26.40;99.90
780;DHT22;373;49.342;8.146;2023-05-07T11:00:41;26.80;99.90
780;DHT22;373;49.342;8.146;2023-05-07T11:03:13;27.10;99.90
780;DHT22;373;49.342;8.146;2023-05-07T11:05:47;27.40;99.90
780;DHT22;373;49.342;8.146;2023-05-07T11:08:21;27.10;97.10
780;DHT22;373;49.342;8.146;2023-05-07T11:11:00;26.70;96.60
780;DHT22;373;49.342;8.146;2023-05-07T11:13:48;26.80;96.90
780;DHT22;373;49.342;8.146;2023-05-07T11:16:33;27.00;99.40
780;DHT22;373;49.342;8.146;2023-05-07T11:19:49;26.50;95.70
780;DHT22;373;49.342;8.146;2023-05-07T11:22:36;26.70;97.20
780;DHT22;373;49.342;8.146;2023-05-07T11:25:17;26.70;99.90
780;DHT22;373;49.342;8.146;2023-05-07T11:27:48;26.80;99.80
780;DHT22;373;49.342;8.146;2023-05-07T11:30:17;27.00;99.10
780;DHT22;373;49.342;8.146;2023-05-07T11:32:48;26.30;96.60
780;DHT22;373;49.342;8.146;2023-05-07T11:35:19;25.90;99.10
780;DHT22;373;49.342;8.146;2023-05-07T11:37:49;26.50;99.90
780;DHT22;373;49.342;8.146;2023-05-07T11:40:17;26.90;98.50
780;DHT22;373;49.342;8.146;2023-05-07T11:42:44;27.30;97.00
780;DHT22;373;49.342;8.146;2023-05-07T11:45:12;27.60;93.20
780;DHT22;373;49.342;8.146;2023-05-07T11:47:49;27.60;92.40
780;DHT22;373;49.342;8.146;2023-05-07T11:50:18;27.70;93.60
780;DHT22;373;49.342;8.146;2023-05-07T11:52:50;28.00;91.30
780;DHT22;373;49.342;8.146;2023-05-07T11:55:18;28.00;91.20
780;DHT22;373;49.342;8.146;2023-05-07T11:57:45;28.10;88.30
780;DHT22;373;49.342;8.146;2023-05-07T12:00:16;27.70;87.50
780;DHT22;373;49.342;8.146;2023-05-07T12:02:44;27.60;86.80
780;DHT22;373;49.342;8.146;2023-05-07T12:05:12;27.30;88.20
780;DHT22;373;49.342;8.146;2023-05-07T12:07:40;27.50;91.90
780;DHT22;373;49.342;8.146;2023-05-07T12:10:08;27.40;88.30
780;DHT22;373;49.342;8.146;2023-05-07T12:12:41;27.40;90.20
780;DHT22;373;49.342;8.146;2023-05-07T12:15:09;27.30;88.50
780;DHT22;373;49.342;8.146;2023-05-07T12:17:37;26.60;88.10
780;DHT22;373;49.342;8.146;2023-05-07T12:20:05;26.40;89.40
780;DHT22;373;49.342;8.146;2023-05-07T12:22:33;26.50;90.70
780;DHT22;373;49.342;8.146;2023-05-07T12:25:01;26.40;91.10
780;DHT22;373;49.342;8.146;2023-05-07T12:27:28;26.10;92.30
780;DHT22;373;49.342;8.146;2023-05-07T12:29:57;26.20;93.40
780;DHT22;373;49.342;8.146;2023-05-07T12:32:24;25.80;94.70
780;DHT22;373;49.342;8.146;2023-05-07T12:34:52;25.70;96.20
780;DHT22;373;49.342;8.146;2023-05-07T12:37:23;25.70;98.00
780;DHT22;373;49.342;8.146;2023-05-07T12:40:05;25.90;99.60
780;DHT22;373;49.342;8.146;2023-05-07T12:42:35;25.80;99.90
780;DHT22;373;49.342;8.146;2023-05-07T12:45:10;25.70;98.20
780;DHT22;373;49.342;8.146;2023-05-07T12:47:37;25.80;97.20
780;DHT22;373;49.342;8.146;2023-05-07T12:50:06;25.90;94.20
780;DHT22;373;49.342;8.146;2023-05-07T12:52:34;25.60;97.70
780;DHT22;373;49.342;8.146;2023-05-07T12:55:07;26.00;99.30
780;DHT22;373;49.342;8.146;2023-05-07T12:57:38;26.00;97.70
780;DHT22;373;49.342;8.146;2023-05-07T13:00:07;25.60;95.10
780;DHT22;373;49.342;8.146;2023-05-07T13:02:38;26.10;99.90
780;DHT22;373;49.342;8.146;2023-05-07T13:05:05;26.40;95.90
780;DHT22;373;49.342;8.146;2023-05-07T13:07:33;26.80;95.90
780;DHT22;373;49.342;8.146;2023-05-07T13:10:00;26.70;95.20
780;DHT22;373;49.342;8.146;2023-05-07T13:12:29;26.90;91.40
780;DHT22;373;49.342;8.146;2023-05-07T13:14:56;27.00;93.90
780;DHT22;373;49.342;8.146;2023-05-07T13:17:23;27.20;91.70
780;DHT22;373;49.342;8.146;2023-05-07T13:19:50;27.10;88.00
780;DHT22;373;49.342;8.146;2023-05-07T13:22:17;26.60;85.70
780;DHT22;373;49.342;8.146;2023-05-07T13:24:44;26.10;87.00
780;DHT22;373;49.342;8.146;2023-05-07T13:27:12;25.90;90.90
780;DHT22;373;49.342;8.146;2023-05-07T13:29:42;25.70;92.20
780;DHT22;373;49.342;8.146;2023-05-07T13:32:09;25.80;94.40
780;DHT22;373;49.342;8.146;2023-05-07T13:34:36;25.90;94.50
780;DHT22;373;49.342;8.146;2023-05-07T13:37:03;25.70;93.20
780;DHT22;373;49.342;8.146;2023-05-07T13:39:31;25.60;93.80
780;DHT22;373;49.342;8.146;2023-05-07T13:41:58;25.70;94.70
780;DHT22;373;49.342;8.146;2023-05-07T13:44:25;25.80;94.30
780;DHT22;373;49.342;8.146;2023-05-07T13:46:54;26.10;93.80
780;DHT22;373;49.342;8.146;2023-05-07T13:49:21;26.40;93.80
780;DHT22;373;49.342;8.146;2023-05-07T13:51:48;26.30;93.10
780;DHT22;373;49.342;8.146;2023-05-07T13:54:15;25.80;95.30
780;DHT22;373;49.342;8.146;2023-05-07T13:56:42;26.20;95.00
780;DHT22;373;49.342;8.146;2023-05-07T13:59:09;26.20;92.20
780;DHT22;373;49.342;8.146;2023-05-07T14:01:38;25.80;92.40
780;DHT22;373;49.342;8.146;2023-05-07T14:04:06;25.40;94.90
780;DHT22;373;49.342;8.146;2023-05-07T14:06:34;24.00;99.90
780;DHT22;373;49.342;8.146;2023-05-07T14:09:01;23.40;99.90
780;DHT22;373;49.342;8.146;2023-05-07T14:11:28;23.20;99.90
780;DHT22;373;49.342;8.146;2023-05-07T14:13:55;22.90;99.90
780;DHT22;373;49.342;8.146;2023-05-07T14:16:26;22.80;99.90
780;DHT22;373;49.342;8.146;2023-05-07T14:18:53;22.50;99.90
780;DHT22;373;49.342;8.146;2023-05-07T14:21:22;22.50;99.90
780;DHT22;373;49.342;8.146;2023-05-07T14:23:49;22.50;99.90
780;DHT22;373;49.342;8.146;2023-05-07T14:26:16;22.50;99.90
780;DHT22;373;49.342;8.146;2023-05-07T14:28:44;22.30;1.00
780;DHT22;373;49.342;8.146;2023-05-07T14:31:12;22.00;1.00
780;DHT22;373;49.342;8.146;2023-05-07T14:33:39;22.00;1.00
780;DHT22;373;49.342;8.146;2023-05-07T14:36:06;22.20;99.90
780;DHT22;373;49.342;8.146;2023-05-07T14:38:35;22.20;99.90
780;DHT22;373;49.342;8.146;2023-05-07T14:41:02;22.20;99.90
780;DHT22;373;49.342;8.146;2023-05-07T14:43:29;22.20;99.90
780;DHT22;373;49.342;8.146;2023-05-07T14:45:56;22.10;99.90
780;DHT22;373;49.342;8.146;2023-05-07T14:48:23;22.20;43.70
780;DHT22;373;49.342;8.146;2023-05-07T14:50:50;22.00;99.90
780;DHT22;373;49.342;8.146;2023-05-07T14:53:17;21.80;99.90
780;DHT22;373;49.342;8.146;2023-05-07T14:55:47;21.80;94.70
780;DHT22;373;49.342;8.146;2023-05-07T14:58:14;21.90;99.90
780;DHT22;373;49.342;8.146;2023-05-07T15:00:41;21.40;99.90
780;DHT22;373;49.342;8.146;2023-05-07T15:03:09;20.80;99.90
780;DHT22;373;49.342;8.146;2023-05-07T15:05:39;20.20;1.00
780;DHT22;373;49.342;8.146;2023-05-07T15:08:07;20.20;1.00
780;DHT22;373;49.342;8.146;2023-05-07T15:10:35;20.40;93.70
780;DHT22;373;49.342;8.146;2023-05-07T15:13:08;20.10;99.90
780;DHT22;373;49.342;8.146;2023-05-07T15:15:35;19.90;1.00
780;DHT22;373;49.342;8.146;2023-05-07T15:18:03;19.40;1.00
780;DHT22;373;49.342;8.146;2023-05-07T15:20:30;19.10;1.00
780;DHT22;373;49.342;8.146;2023-05-07T15:22:57;19.00;1.00
780;DHT22;373;49.342;8.146;2023-05-07T15:25:25;18.60;39.40
780;DHT22;373;49.342;8.146;2023-05-07T15:27:52;18.60;99.90
780;DHT22;373;49.342;8.146;2023-05-07T15:30:20;18.40;32.20
780;DHT22;373;49.342;8.146;2023-05-07T15:32:48;18.50;99.90
780;DHT22;373;49.342;8.146;2023-05-07T15:35:15;18.60;99.90
780;DHT22;373;49.342;8.146;2023-05-07T15:37:47;18.40;99.90
780;DHT22;373;49.342;8.146;2023-05-07T15:40:15;18.30;25.90
780;DHT22;373;49.342;8.146;2023-05-07T15:42:42;18.00;1.00
780;DHT22;373;49.342;8.146;2023-05-07T15:45:10;18.10;20.90
780;DHT22;373;49.342;8.146;2023-05-07T15:47:39;18.20;13.00
780;DHT22;373;49.342;8.146;2023-05-07T15:50:07;18.20;11.60
780;DHT22;373;49.342;8.146;2023-05-07T15:52:34;18.40;1.00
780;DHT22;373;49.342;8.146;2023-05-07T15:55:01;18.60;1.00
780;DHT22;373;49.342;8.146;2023-05-07T15:57:29;18.40;1.00
780;DHT22;373;49.342;8.146;2023-05-07T15:59:57;18.50;13.40
780;DHT22;373;49.342;8.146;2023-05-07T16:02:24;18.60;1.00
780;DHT22;373;49.342;8.146;2023-05-07T16:04:53;18.70;5.70
780;DHT22;373;49.342;8.146;2023-05-07T16:07:20;18.80;41.30
780;DHT22;373;49.342;8.146;2023-05-07T16:09:47;18.80;40.70
780;DHT22;373;49.342;8.146;2023-05-07T16:12:14;18.70;1.00
780;DHT22;373;49.342;8.146;2023-05-07T16:14:42;18.50;17.00
780;DHT22;373;49.342;8.146;2023-05-07T16:17:10;18.10;79.10
780;DHT22;373;49.342;8.146;2023-05-07T16:19:37;17.60;99.90
780;DHT22;373;49.342;8.146;2023-05-07T16:22:05;17.30;99.90
780;DHT22;373;49.342;8.146;2023-05-07T16:24:32;17.10;99.90
780;DHT22;373;49.342;8.146;2023-05-07T16:26:59;16.80;99.90
780;DHT22;373;49.342;8.146;2023-05-07T16:29:26;16.50;99.90
780;DHT22;373;49.342;8.146;2023-05-07T16:31:53;16.70;99.90
780;DHT22;373;49.342;8.146;2023-05-07T16:34:21;17.00;99.90
780;DHT22;373;49.342;8.146;2023-05-07T16:36:48;17.40;99.90
780;DHT22;373;49.342;8.146;2023-05-07T16:39:17;17.50;99.90
780;DHT22;373;49.342;8.146;2023-05-07T16:41:44;17.50;99.90
780;DHT22;373;49.342;8.146;2023-05-07T16:44:13;17.30;99.90
780;DHT22;373;49.342;8.146;2023-05-07T16:46:40;17.10;99.90
780;DHT22;373;49.342;8.146;2023-05-07T16:49:07;16.80;99.90
780;DHT22;373;49.342;8.146;2023-05-07T16:51:35;16.60;99.90
780;DHT22;373;49.342;8.146;2023-05-07T16:54:02;16.50;99.90